Time,TemperatureF,DewpointF,PressureIn,WindDirection,WindDirectionDegrees,WindSpeedMPH,WindSpeedGustMPH,Humidity,HourlyPrecipIn,Conditions,Clouds,dailyrainin,SoftwareType,DateUTC
2013-01-29 00:00:00,30.7,28.9,29.99,SSE,155,0.0,0.0,93,0.00,,,0.00,meteohub,2013-01-29 05:00:00,
2013-01-29 00:02:00,30.7,28.9,29.99,SSE,155,0.0,0.0,93,0.00,,,0.00,meteohub,2013-01-29 05:02:00,
2013-01-29 00:03:00,30.7,28.9,29.99,SSE,155,0.0,0.0,93,0.00,,,0.00,meteohub,2013-01-29 05:03:00,
2013-01-29 00:08:00,30.7,28.9,29.99,SSE,155,0.0,0.0,93,0.00,,,0.00,meteohub,2013-01-29 05:08:00,
2013-01-29 00:13:00,30.9,28.9,29.99,SSE,156,0.0,0.0,92,0.00,,,0.00,meteohub,2013-01-29 05:13:00,
2013-01-29 00:18:00,30.9,29.1,29.99,SSE,155,0.0,0.0,93,0.00,,,0.00,meteohub,2013-01-29 05:18:00,
2013-01-29 00:23:00,30.9,28.9,29.99,SSE,155,0.0,0.0,92,0.00,,,0.00,meteohub,2013-01-29 05:23:00,
2013-01-29 00:28:00,30.9,28.9,29.98,SSE,155,0.0,0.0,92,0.00,,,0.00,meteohub,2013-01-29 05:28:00,
2013-01-29 00:33:00,30.9,29.1,29.97,SSE,156,0.0,0.0,93,0.00,,,0.00,meteohub,2013-01-29 05:33:00,
2013-01-29 00:38:00,30.9,29.1,29.98,SSE,155,0.0,0.0,93,0.00,,,0.00,meteohub,2013-01-29 05:38:00,
2013-01-29 00:43:00,30.9,29.1,29.98,SSE,155,0.0,0.0,93,0.00,,,0.00,meteohub,2013-01-29 05:43:00,
2013-01-29 00:48:00,30.9,29.1,29.98,SSE,155,0.0,0.0,93,0.00,,,0.00,meteohub,2013-01-29 05:48:00,
2013-01-29 00:53:00,31.1,29.1,29.97,SSE,155,0.0,0.0,92,0.00,,,0.00,meteohub,2013-01-29 05:53:00,
2013-01-29 00:58:00,31.3,29.3,29.97,SSE,155,0.0,0.0,92,0.00,,,0.00,meteohub,2013-01-29 05:58:00,
2013-01-29 01:03:00,31.3,29.3,29.97,SSE,155,0.0,0.0,92,0.00,,,0.00,meteohub,2013-01-29 06:03:00,
2013-01-29 01:08:00,31.3,29.3,29.97,SSE,155,0.0,0.0,92,0.00,,,0.00,meteohub,2013-01-29 06:08:00,
2013-01-29 01:13:00,31.3,29.3,29.96,SSE,155,0.0,0.0,92,0.00,,,0.00,meteohub,2013-01-29 06:13:00,
2013-01-29 01:19:00,31.5,29.5,29.95,SSE,155,0.0,0.0,92,0.00,,,0.00,meteohub,2013-01-29 06:19:00,
2013-01-29 01:24:00,31.5,29.5,29.95,SSE,156,0.0,0.0,92,0.00,,,0.00,meteohub,2013-01-29 06:24:00,
2013-01-29 01:29:00,31.5,29.5,29.94,SSE,155,0.0,0.0,92,0.00,,,0.00,meteohub,2013-01-29 06:29:00,
2013-01-29 01:34:00,31.5,29.5,29.94,SSE,155,0.0,0.0,92,0.00,,,0.00,meteohub,2013-01-29 06:34:00,
2013-01-29 01:39:00,31.6,29.7,29.94,SSE,155,0.0,0.0,92,0.00,,,0.00,meteohub,2013-01-29 06:39:00,
2013-01-29 01:44:00,31.5,29.5,29.93,SSE,155,0.0,0.0,92,0.00,,,0.00,meteohub,2013-01-29 06:44:00,
2013-01-29 01:49:00,31.5,29.5,29.93,SSE,155,0.0,0.0,92,0.00,,,0.00,meteohub,2013-01-29 06:49:00,
2013-01-29 01:54:00,31.5,29.5,29.92,SSE,155,0.0,0.0,92,0.00,,,0.00,meteohub,2013-01-29 06:54:00,
2013-01-29 01:59:00,31.5,29.5,29.92,SSE,155,0.0,0.0,92,0.00,,,0.00,meteohub,2013-01-29 06:59:00,
2013-01-29 02:04:00,31.5,29.5,29.91,SSE,156,0.0,0.0,92,0.00,,,0.00,meteohub,2013-01-29 07:04:00,
2013-01-29 02:09:00,31.6,29.7,29.91,SSE,155,0.0,0.0,92,0.00,,,0.00,meteohub,2013-01-29 07:09:00,
2013-01-29 02:14:00,31.6,29.7,29.91,SSE,155,0.0,0.0,92,0.00,,,0.00,meteohub,2013-01-29 07:14:00,
2013-01-29 02:19:00,31.6,29.7,29.91,SSE,155,0.0,0.0,92,0.00,,,0.00,meteohub,2013-01-29 07:19:00,
2013-01-29 02:24:00,31.6,29.8,29.91,SSE,155,0.0,0.0,93,0.00,,,0.00,meteohub,2013-01-29 07:24:00,
2013-01-29 02:29:00,31.6,29.8,29.92,SSE,155,0.0,0.0,93,0.00,,,0.00,meteohub,2013-01-29 07:29:00,
2013-01-29 02:34:00,31.6,29.8,29.91,SSE,155,0.0,0.0,93,0.00,,,0.00,meteohub,2013-01-29 07:34:00,
2013-01-29 02:39:00,31.6,29.8,29.91,SSE,155,0.0,0.0,93,0.00,,,0.00,meteohub,2013-01-29 07:39:00,
2013-01-29 02:44:00,31.6,29.8,29.91,SSE,155,0.0,0.0,93,0.00,,,0.00,meteohub,2013-01-29 07:44:00,
2013-01-29 02:49:00,31.8,30.0,29.90,SSE,155,0.0,0.0,93,0.00,,,0.00,meteohub,2013-01-29 07:49:00,
2013-01-29 02:54:00,31.8,30.0,29.91,SSE,155,0.0,0.0,93,0.00,,,0.00,meteohub,2013-01-29 07:54:00,
2013-01-29 02:59:00,31.8,30.0,29.91,SSE,155,0.0,0.0,93,0.00,,,0.00,meteohub,2013-01-29 07:59:00,
2013-01-29 03:04:00,31.8,30.0,29.88,SSE,155,0.0,0.0,93,0.00,,,0.00,meteohub,2013-01-29 08:04:00,
2013-01-29 03:09:00,32.0,30.2,29.87,SSE,155,0.0,0.0,93,0.00,,,0.00,meteohub,2013-01-29 08:09:00,
2013-01-29 03:14:00,32.2,30.4,29.86,SSE,155,0.0,0.0,93,0.00,,,0.00,meteohub,2013-01-29 08:14:00,
2013-01-29 03:19:00,32.2,30.4,29.87,SSE,155,0.0,0.0,93,0.00,,,0.00,meteohub,2013-01-29 08:19:00,
2013-01-29 03:24:00,32.4,30.6,29.87,SSE,155,0.0,0.0,93,0.00,,,0.00,meteohub,2013-01-29 08:24:00,
2013-01-29 03:29:00,32.4,30.6,29.87,SSE,155,0.0,0.0,93,0.00,,,0.00,meteohub,2013-01-29 08:29:00,
2013-01-29 03:34:00,32.5,30.7,29.86,SSE,155,0.0,0.0,93,0.00,,,0.00,meteohub,2013-01-29 08:34:00,
2013-01-29 03:39:00,32.5,30.7,29.86,SSE,155,0.0,0.0,93,0.00,,,0.00,meteohub,2013-01-29 08:39:00,
2013-01-29 03:44:00,32.5,30.7,29.85,SSE,155,0.0,0.0,93,0.00,,,0.00,meteohub,2013-01-29 08:44:00,
2013-01-29 03:49:00,32.7,30.9,29.84,SSE,155,0.0,0.0,93,0.00,,,0.00,meteohub,2013-01-29 08:49:00,
2013-01-29 03:54:00,32.7,30.9,29.84,SSE,155,0.0,0.0,93,0.00,,,0.00,meteohub,2013-01-29 08:54:00,
2013-01-29 03:59:00,32.7,30.9,29.84,SSE,155,0.0,0.0,93,0.00,,,0.00,meteohub,2013-01-29 08:59:00,
2013-01-29 04:04:00,32.7,30.9,29.84,SSE,155,0.0,0.0,93,0.00,,,0.00,meteohub,2013-01-29 09:04:00,
2013-01-29 04:10:00,32.9,31.1,29.84,SSE,155,0.0,0.0,93,0.00,,,0.00,meteohub,2013-01-29 09:10:00,
2013-01-29 04:15:00,33.1,31.3,29.84,SSE,155,0.0,0.0,93,0.00,,,0.00,meteohub,2013-01-29 09:15:00,
2013-01-29 04:20:00,33.1,31.1,29.84,SSE,155,0.0,0.0,92,0.00,,,0.00,meteohub,2013-01-29 09:20:00,
2013-01-29 04:25:00,33.1,31.1,29.85,SSE,155,0.0,0.0,92,0.00,,,0.00,meteohub,2013-01-29 09:25:00,
2013-01-29 04:30:00,33.3,31.1,29.83,SSE,155,0.0,0.0,92,0.00,,,0.00,meteohub,2013-01-29 09:30:00,
2013-01-29 04:35:00,33.3,31.1,29.82,SSE,155,0.0,0.0,92,0.00,,,0.00,meteohub,2013-01-29 09:35:00,
2013-01-29 04:40:00,33.3,31.1,29.82,SSE,155,0.0,0.0,92,0.00,,,0.00,meteohub,2013-01-29 09:40:00,
2013-01-29 04:45:00,33.4,31.3,29.82,SSE,156,0.0,0.0,92,0.00,,,0.00,meteohub,2013-01-29 09:45:00,
2013-01-29 04:50:00,33.4,31.3,29.81,SSE,155,0.0,0.0,92,0.00,,,0.00,meteohub,2013-01-29 09:50:00,
2013-01-29 04:55:00,33.4,31.3,29.81,SSE,155,0.0,0.0,92,0.00,,,0.00,meteohub,2013-01-29 09:55:00,
2013-01-29 05:00:00,33.6,31.5,29.80,SSE,155,0.0,0.0,92,0.00,,,0.00,meteohub,2013-01-29 10:00:00,
2013-01-29 05:05:00,33.6,31.8,29.80,SSE,155,0.0,0.0,93,0.00,,,0.00,meteohub,2013-01-29 10:05:00,
2013-01-29 05:10:00,33.6,31.8,29.79,SSE,154,0.0,0.0,93,0.00,,,0.00,meteohub,2013-01-29 10:10:00,
2013-01-29 05:15:00,33.8,31.6,29.78,South,184,0.0,0.0,92,0.00,,,0.00,meteohub,2013-01-29 10:15:00,
2013-01-29 05:20:00,33.8,32.0,29.78,South,175,0.0,0.0,93,0.00,,,0.00,meteohub,2013-01-29 10:20:00,
2013-01-29 05:25:00,33.8,32.0,29.78,SSW,206,0.0,0.0,93,0.00,,,0.00,meteohub,2013-01-29 10:25:00,
2013-01-29 05:30:00,34.0,32.2,29.78,South,183,0.0,0.0,93,0.00,,,0.00,meteohub,2013-01-29 10:30:00,
2013-01-29 05:35:00,34.0,32.2,29.78,SW,220,0.0,0.0,93,0.00,,,0.00,meteohub,2013-01-29 10:35:00,
2013-01-29 05:40:00,34.0,32.2,29.78,ENE,68,0.0,0.0,93,0.00,,,0.00,meteohub,2013-01-29 10:40:00,
2013-01-29 05:45:00,34.2,32.4,29.78,SSE,149,0.0,0.0,93,0.00,,,0.00,meteohub,2013-01-29 10:45:00,
2013-01-29 05:50:00,34.2,32.4,29.78,SE,144,0.0,0.0,93,0.00,,,0.00,meteohub,2013-01-29 10:50:00,
2013-01-29 05:55:00,34.2,32.4,29.77,SW,226,0.0,0.0,93,0.00,,,0.00,meteohub,2013-01-29 10:55:00,
2013-01-29 06:00:00,34.3,32.2,29.77,SSE,150,0.0,0.0,92,0.00,,,0.00,meteohub,2013-01-29 11:00:00,
2013-01-29 06:05:00,34.3,32.5,29.77,SW,224,0.0,0.0,93,0.00,,,0.00,meteohub,2013-01-29 11:05:00,
2013-01-29 06:10:00,34.3,32.5,29.77,ESE,102,0.0,0.0,93,0.00,,,0.00,meteohub,2013-01-29 11:10:00,
2013-01-29 06:15:00,34.5,32.7,29.76,ESE,103,0.0,0.0,93,0.00,,,0.00,meteohub,2013-01-29 11:15:00,
2013-01-29 06:20:00,34.5,32.7,29.75,SSW,209,0.0,0.0,93,0.00,,,0.00,meteohub,2013-01-29 11:20:00,
2013-01-29 06:25:00,34.5,32.7,29.75,South,174,0.0,0.0,93,0.00,,,0.00,meteohub,2013-01-29 11:25:00,
2013-01-29 06:30:00,34.7,33.1,29.74,WSW,258,0.0,0.0,94,0.00,,,0.00,meteohub,2013-01-29 11:30:00,
2013-01-29 06:35:00,34.7,33.1,29.74,SE,134,0.0,0.0,94,0.00,,,0.00,meteohub,2013-01-29 11:35:00,
2013-01-29 06:40:00,34.9,33.3,29.73,SW,218,0.0,0.0,94,0.00,,,0.00,meteohub,2013-01-29 11:40:00,
2013-01-29 06:45:00,35.1,33.4,29.72,West,262,0.0,0.0,94,0.00,,,0.00,meteohub,2013-01-29 11:45:00,
2013-01-29 06:50:00,35.1,33.4,29.72,East,86,0.0,0.0,94,0.00,,,0.00,meteohub,2013-01-29 11:50:00,
2013-01-29 06:55:00,35.2,33.6,29.72,ESE,122,0.0,0.0,94,0.00,,,0.00,meteohub,2013-01-29 11:55:00,
2013-01-29 07:01:00,35.2,33.6,29.72,NNE,25,0.0,0.0,94,0.00,,,0.00,meteohub,2013-01-29 12:01:00,
2013-01-29 07:06:00,35.2,33.6,29.71,South,169,0.0,0.0,94,0.00,,,0.00,meteohub,2013-01-29 12:06:00,
2013-01-29 07:11:00,35.2,33.6,29.71,NNE,25,0.0,0.0,94,0.00,,,0.00,meteohub,2013-01-29 12:11:00,
2013-01-29 07:16:00,35.2,33.4,29.71,SE,145,0.0,0.0,93,0.00,,,0.00,meteohub,2013-01-29 12:16:00,
2013-01-29 07:21:00,35.4,33.6,29.71,NE,42,0.0,0.0,93,0.00,,,0.00,meteohub,2013-01-29 12:21:00,
2013-01-29 07:26:00,35.4,33.6,29.70,WSW,247,0.0,0.0,93,0.00,,,0.00,meteohub,2013-01-29 12:26:00,
2013-01-29 07:31:00,35.4,33.6,29.70,ENE,75,0.0,0.0,93,0.00,,,0.00,meteohub,2013-01-29 12:31:00,
2013-01-29 07:36:00,35.4,33.6,29.70,South,190,0.0,0.0,93,0.00,,,0.00,meteohub,2013-01-29 12:36:00,
2013-01-29 07:41:00,35.4,33.6,29.69,South,186,0.0,0.0,93,0.00,,,0.00,meteohub,2013-01-29 12:41:00,
2013-01-29 07:46:00,35.6,33.8,29.70,ENE,60,0.0,0.0,93,0.00,,,0.00,meteohub,2013-01-29 12:46:00,
2013-01-29 07:51:00,35.8,34.0,29.69,SE,143,0.0,0.0,93,0.00,,,0.00,meteohub,2013-01-29 12:51:00,
2013-01-29 07:56:00,35.8,34.0,29.69,ESE,108,0.0,0.0,93,0.00,,,0.00,meteohub,2013-01-29 12:56:00,
2013-01-29 08:01:00,35.8,34.2,29.69,SE,140,0.0,0.0,94,0.00,,,0.00,meteohub,2013-01-29 13:01:00,
2013-01-29 08:06:00,35.8,34.2,29.68,SE,145,0.0,0.0,94,0.00,,,0.00,meteohub,2013-01-29 13:06:00,
2013-01-29 08:11:00,36.0,34.3,29.68,South,186,0.0,0.0,94,0.00,,,0.00,meteohub,2013-01-29 13:11:00,
2013-01-29 08:16:00,36.0,34.3,29.68,SSE,160,0.0,0.0,94,0.00,,,0.00,meteohub,2013-01-29 13:16:00,
2013-01-29 08:21:00,36.1,34.5,29.68,ENE,77,0.0,0.0,94,0.00,,,0.00,meteohub,2013-01-29 13:21:00,
2013-01-29 08:26:00,36.1,34.5,29.68,South,189,0.0,0.0,94,0.00,,,0.00,meteohub,2013-01-29 13:26:00,
2013-01-29 08:31:00,36.1,34.5,29.68,South,183,0.0,0.0,94,0.00,,,0.00,meteohub,2013-01-29 13:31:00,
2013-01-29 08:36:00,36.3,34.7,29.68,SSW,201,0.0,0.0,94,0.00,,,0.00,meteohub,2013-01-29 13:36:00,
2013-01-29 08:41:00,36.3,34.5,29.68,South,181,0.0,0.0,93,0.00,,,0.00,meteohub,2013-01-29 13:41:00,
2013-01-29 08:46:00,36.3,34.5,29.68,ENE,75,0.0,0.0,93,0.00,,,0.00,meteohub,2013-01-29 13:46:00,
2013-01-29 08:51:00,36.3,34.7,29.68,SSE,148,0.0,0.0,94,0.00,,,0.00,meteohub,2013-01-29 13:51:00,
2013-01-29 08:56:00,36.5,34.9,29.68,ESE,123,0.0,13.0,94,0.00,,,0.00,meteohub,2013-01-29 13:56:00,
2013-01-29 09:01:00,36.5,34.9,29.68,SE,131,3.0,13.0,94,0.00,,,0.00,meteohub,2013-01-29 14:01:00,
2013-01-29 09:06:00,36.7,35.1,29.67,East,93,1.0,13.0,94,0.00,,,0.00,meteohub,2013-01-29 14:06:00,
2013-01-29 09:11:00,36.7,35.1,29.67,South,183,3.0,6.0,94,0.00,,,0.00,meteohub,2013-01-29 14:11:00,
2013-01-29 09:16:00,36.7,35.1,29.67,East,81,1.0,8.0,94,0.00,,,0.00,meteohub,2013-01-29 14:16:00,
2013-01-29 09:21:00,36.9,35.2,29.67,NNE,17,3.0,8.0,94,0.00,,,0.00,meteohub,2013-01-29 14:21:00,
2013-01-29 09:26:00,36.9,35.2,29.66,ESE,116,2.0,8.0,94,0.00,,,0.00,meteohub,2013-01-29 14:26:00,
2013-01-29 09:31:00,36.9,35.2,29.65,SSW,209,4.0,8.0,94,0.00,,,0.00,meteohub,2013-01-29 14:31:00,
2013-01-29 09:36:00,37.0,35.8,29.66,ENE,66,3.0,7.0,95,0.00,,,0.00,meteohub,2013-01-29 14:36:00,
2013-01-29 09:41:00,37.2,35.6,29.65,West,266,2.0,8.0,94,0.00,,,0.00,meteohub,2013-01-29 14:41:00,
2013-01-29 09:46:00,37.6,36.3,29.65,East,96,4.0,9.0,95,0.00,,,0.00,meteohub,2013-01-29 14:46:00,
2013-01-29 09:51:00,37.6,36.0,29.65,SW,214,1.0,9.0,94,0.00,,,0.00,meteohub,2013-01-29 14:51:00,
2013-01-29 09:56:00,37.8,36.5,29.65,SSW,213,5.0,11.0,95,0.00,,,0.00,meteohub,2013-01-29 14:56:00,
2013-01-29 10:01:00,37.9,36.3,29.64,SSE,157,2.0,12.0,94,0.00,,,0.00,meteohub,2013-01-29 15:01:00,
2013-01-29 10:06:00,38.1,36.5,29.65,ESE,123,2.0,12.0,94,0.00,,,0.00,meteohub,2013-01-29 15:06:00,
2013-01-29 10:11:00,38.1,36.5,29.65,South,182,6.0,11.0,94,0.00,,,0.00,meteohub,2013-01-29 15:11:00,
2013-01-29 10:16:00,38.3,37.0,29.65,SSW,206,1.0,8.0,95,0.00,,,0.00,meteohub,2013-01-29 15:16:00,
2013-01-29 10:21:00,38.5,37.2,29.65,ESE,121,5.0,8.0,95,0.03,,,0.03,meteohub,2013-01-29 15:21:00,
2013-01-29 10:26:00,38.7,37.4,29.65,East,100,3.0,6.0,95,0.05,,,0.05,meteohub,2013-01-29 15:26:00,
2013-01-29 10:31:00,38.8,37.6,29.65,SSW,201,3.0,8.0,95,0.07,,,0.07,meteohub,2013-01-29 15:31:00,
2013-01-29 10:36:00,39.2,37.9,29.65,SE,145,4.0,9.0,95,0.09,,,0.09,meteohub,2013-01-29 15:36:00,
2013-01-29 10:41:00,39.4,37.8,29.65,SE,124,10.0,11.0,94,0.11,,,0.11,meteohub,2013-01-29 15:41:00,
2013-01-29 10:46:00,39.6,37.9,29.64,SE,131,5.0,12.0,94,0.12,,,0.12,meteohub,2013-01-29 15:46:00,
2013-01-29 10:51:00,39.6,37.9,29.63,ENE,72,3.0,16.0,94,0.16,,,0.16,meteohub,2013-01-29 15:51:00,
2013-01-29 10:56:00,39.4,37.8,29.64,ENE,74,2.0,16.0,94,0.19,,,0.19,meteohub,2013-01-29 15:56:00,
2013-01-29 11:01:00,39.4,37.8,29.63,ESE,120,4.0,16.0,94,0.20,,,0.20,meteohub,2013-01-29 16:01:00,
2013-01-29 11:06:00,39.4,37.8,29.63,ESE,117,0.0,9.0,94,0.23,,,0.23,meteohub,2013-01-29 16:06:00,
2013-01-29 11:11:00,39.2,37.6,29.63,East,88,2.0,7.0,94,0.25,,,0.25,meteohub,2013-01-29 16:11:00,
2013-01-29 11:16:00,39.4,38.1,29.64,SSE,167,4.0,7.0,95,0.25,,,0.26,meteohub,2013-01-29 16:16:00,
2013-01-29 11:21:00,39.6,38.3,29.63,WSW,245,3.0,7.0,95,0.24,,,0.28,meteohub,2013-01-29 16:21:00,
2013-01-29 11:26:00,39.6,38.3,29.63,SSE,155,4.0,9.0,95,0.24,,,0.29,meteohub,2013-01-29 16:26:00,
2013-01-29 11:31:00,39.7,38.5,29.63,ENE,70,7.0,12.0,95,0.24,,,0.32,meteohub,2013-01-29 16:31:00,
2013-01-29 11:36:00,40.1,38.8,29.62,NNW,333,3.0,12.0,95,0.24,,,0.34,meteohub,2013-01-29 16:36:00,
2013-01-29 11:41:00,40.5,39.2,29.62,SE,124,4.0,12.0,95,0.25,,,0.36,meteohub,2013-01-29 16:41:00,
2013-01-29 11:46:00,40.6,39.0,29.62,East,91,3.0,12.0,94,0.24,,,0.38,meteohub,2013-01-29 16:46:00,
2013-01-29 11:52:00,40.6,39.0,29.60,SSE,165,6.0,9.0,94,0.24,,,0.41,meteohub,2013-01-29 16:52:00,
2013-01-29 11:57:00,40.6,39.0,29.59,SW,223,3.0,9.0,94,0.25,,,0.43,meteohub,2013-01-29 16:57:00,
2013-01-29 12:02:00,40.6,39.0,29.57,ENE,70,2.0,9.0,94,0.24,,,0.45,meteohub,2013-01-29 17:02:00,
2013-01-29 12:07:00,40.6,39.0,29.56,SSW,199,2.0,9.0,94,0.24,,,0.47,meteohub,2013-01-29 17:07:00,
2013-01-29 12:12:00,40.8,39.6,29.55,SE,126,2.0,7.0,95,0.23,,,0.47,meteohub,2013-01-29 17:12:00,
2013-01-29 12:17:00,41.0,39.7,29.56,NNE,15,0.0,7.0,95,0.22,,,0.49,meteohub,2013-01-29 17:17:00,
2013-01-29 12:22:00,41.2,39.9,29.56,East,79,1.0,7.0,95,0.21,,,0.50,meteohub,2013-01-29 17:22:00,
2013-01-29 12:27:00,42.3,41.2,29.55,ENE,78,2.0,10.0,96,0.19,,,0.50,meteohub,2013-01-29 17:27:00,
2013-01-29 12:32:00,43.0,41.7,29.55,ESE,123,2.0,10.0,95,0.18,,,0.51,meteohub,2013-01-29 17:32:00,
2013-01-29 12:37:00,43.2,41.5,29.56,SW,221,0.0,10.0,94,0.17,,,0.52,meteohub,2013-01-29 17:37:00,
2013-01-29 12:42:00,43.5,42.3,29.57,East,85,2.0,6.0,95,0.16,,,0.53,meteohub,2013-01-29 17:42:00,
2013-01-29 12:47:00,44.2,43.0,29.57,SE,126,3.0,6.0,95,0.14,,,0.54,meteohub,2013-01-29 17:47:00,
2013-01-29 12:52:00,45.0,43.3,29.57,SSE,147,2.0,8.0,94,0.14,,,0.56,meteohub,2013-01-29 17:52:00,
2013-01-29 12:57:00,45.1,43.0,29.57,ESE,109,3.0,8.0,92,0.13,,,0.57,meteohub,2013-01-29 17:57:00,
2013-01-29 13:02:00,45.1,43.0,29.57,WNW,297,1.0,8.0,92,0.12,,,0.58,meteohub,2013-01-29 18:02:00,
2013-01-29 13:07:00,45.1,43.0,29.57,ENE,73,1.0,7.0,92,0.13,,,0.60,meteohub,2013-01-29 18:07:00,
2013-01-29 13:12:00,45.0,43.0,29.57,WSW,242,3.0,7.0,93,0.12,,,0.60,meteohub,2013-01-29 18:12:00,
2013-01-29 13:17:00,44.8,42.8,29.57,East,88,2.0,7.0,93,0.12,,,0.61,meteohub,2013-01-29 18:17:00,
2013-01-29 13:22:00,44.8,42.8,29.57,ENE,71,0.0,6.0,93,0.12,,,0.62,meteohub,2013-01-29 18:22:00,
2013-01-29 13:27:00,44.4,42.4,29.57,ESE,115,0.0,6.0,93,0.13,,,0.63,meteohub,2013-01-29 18:27:00,
2013-01-29 13:32:00,43.7,41.2,29.56,SSE,160,2.0,5.0,91,0.12,,,0.63,meteohub,2013-01-29 18:32:00,
2013-01-29 13:37:00,43.3,41.2,29.55,East,88,1.0,4.0,92,0.12,,,0.64,meteohub,2013-01-29 18:37:00,
2013-01-29 13:42:00,43.3,41.5,29.55,SE,131,0.0,3.0,93,0.11,,,0.64,meteohub,2013-01-29 18:42:00,
2013-01-29 13:47:00,43.7,42.1,29.55,SSE,151,1.0,3.0,94,0.10,,,0.65,meteohub,2013-01-29 18:47:00,
2013-01-29 13:52:00,44.2,42.6,29.55,SE,145,0.0,3.0,94,0.08,,,0.65,meteohub,2013-01-29 18:52:00,
2013-01-29 13:57:00,44.4,42.8,29.55,East,91,2.0,3.0,94,0.08,,,0.66,meteohub,2013-01-29 18:57:00,
2013-01-29 14:02:00,44.4,42.4,29.54,ESE,106,1.0,3.0,93,0.07,,,0.66,meteohub,2013-01-29 19:02:00,
2013-01-29 14:07:00,44.4,42.4,29.54,SSE,151,0.0,3.0,93,0.07,,,0.67,meteohub,2013-01-29 19:07:00,
2013-01-29 14:12:00,44.4,42.4,29.54,SE,130,0.0,3.0,93,0.06,,,0.67,meteohub,2013-01-29 19:12:00,
2013-01-29 14:17:00,45.0,43.7,29.53,South,183,0.0,3.0,95,0.06,,,0.68,meteohub,2013-01-29 19:17:00,
2013-01-29 14:22:00,44.8,42.8,29.53,SSW,202,0.0,3.0,93,0.06,,,0.68,meteohub,2013-01-29 19:22:00,
2013-01-29 14:27:00,44.8,43.2,29.53,SE,127,1.0,3.0,94,0.05,,,0.68,meteohub,2013-01-29 19:27:00,
2013-01-29 14:32:00,44.8,43.5,29.53,East,90,1.0,3.0,95,0.06,,,0.69,meteohub,2013-01-29 19:32:00,
2013-01-29 14:37:00,45.3,44.1,29.52,South,176,0.0,3.0,95,0.05,,,0.69,meteohub,2013-01-29 19:37:00,
2013-01-29 14:42:00,45.0,43.3,29.53,SSW,200,0.0,3.0,94,0.05,,,0.69,meteohub,2013-01-29 19:42:00,
2013-01-29 14:47:00,45.0,43.7,29.53,SSW,195,0.0,3.0,95,0.05,,,0.69,meteohub,2013-01-29 19:47:00,
2013-01-29 14:52:00,46.0,45.3,29.53,SSE,155,1.0,3.0,97,0.05,,,0.70,meteohub,2013-01-29 19:52:00,
2013-01-29 14:57:00,45.9,44.4,29.53,ENE,75,1.0,5.0,95,0.04,,,0.70,meteohub,2013-01-29 19:57:00,
2013-01-29 15:02:00,46.6,45.5,29.53,SSW,199,0.0,5.0,96,0.04,,,0.70,meteohub,2013-01-29 20:02:00,
2013-01-29 15:07:00,46.4,45.0,29.52,SW,221,0.0,3.0,95,0.04,,,0.71,meteohub,2013-01-29 20:07:00,
2013-01-29 15:12:00,46.4,45.0,29.53,SSW,200,0.0,2.0,95,0.04,,,0.71,meteohub,2013-01-29 20:12:00,
2013-01-29 15:17:00,45.9,44.4,29.52,NNW,342,0.0,2.0,95,0.03,,,0.71,meteohub,2013-01-29 20:17:00,
2013-01-29 15:22:00,45.9,44.8,29.52,SW,217,0.0,2.0,96,0.03,,,0.71,meteohub,2013-01-29 20:22:00,
2013-01-29 15:27:00,45.9,44.8,29.52,SW,226,0.0,2.0,96,0.03,,,0.71,meteohub,2013-01-29 20:27:00,
2013-01-29 15:32:00,45.9,44.8,29.52,SW,226,1.0,2.0,96,0.02,,,0.71,meteohub,2013-01-29 20:32:00,
2013-01-29 15:37:00,45.9,44.8,29.52,SSW,199,1.0,2.0,96,0.02,,,0.71,meteohub,2013-01-29 20:37:00,
2013-01-29 15:42:00,46.0,45.3,29.52,SSE,161,1.0,2.0,97,0.02,,,0.71,meteohub,2013-01-29 20:42:00,
2013-01-29 15:47:00,45.9,44.8,29.52,South,189,0.0,2.0,96,0.02,,,0.72,meteohub,2013-01-29 20:47:00,
2013-01-29 15:52:00,45.9,44.8,29.52,SSW,195,1.0,1.0,96,0.02,,,0.72,meteohub,2013-01-29 20:52:00,
2013-01-29 15:57:00,45.5,44.2,29.52,NNE,25,1.0,2.0,95,0.02,,,0.72,meteohub,2013-01-29 20:57:00,
2013-01-29 16:02:00,46.0,45.3,29.52,SSE,148,0.0,2.0,97,0.02,,,0.72,meteohub,2013-01-29 21:02:00,
2013-01-29 16:07:00,46.2,45.5,29.52,SW,223,0.0,2.0,97,0.01,,,0.72,meteohub,2013-01-29 21:07:00,
2013-01-29 16:13:00,46.6,45.9,29.52,ESE,109,1.0,3.0,97,0.01,,,0.72,meteohub,2013-01-29 21:13:00,
2013-01-29 16:18:00,48.0,47.5,29.52,SE,128,2.0,3.0,98,0.01,,,0.72,meteohub,2013-01-29 21:18:00,
2013-01-29 16:23:00,48.4,47.8,29.52,East,96,1.0,7.0,98,0.01,,,0.72,meteohub,2013-01-29 21:23:00,
2013-01-29 16:28:00,49.3,48.7,29.52,ESE,113,1.0,7.0,98,0.01,,,0.72,meteohub,2013-01-29 21:28:00,
2013-01-29 16:33:00,48.9,48.0,29.52,ENE,61,3.0,7.0,97,0.01,,,0.72,meteohub,2013-01-29 21:33:00,
2013-01-29 16:38:00,49.1,48.2,29.52,SW,235,0.0,5.0,97,0.01,,,0.72,meteohub,2013-01-29 21:38:00,
2013-01-29 16:43:00,48.4,46.9,29.52,SSW,203,0.0,6.0,95,0.01,,,0.72,meteohub,2013-01-29 21:43:00,
2013-01-29 16:48:00,48.0,46.6,29.51,SSW,209,1.0,6.0,95,0.00,,,0.72,meteohub,2013-01-29 21:48:00,
2013-01-29 16:53:00,47.5,46.4,29.52,SW,223,1.0,3.0,96,0.00,,,0.72,meteohub,2013-01-29 21:53:00,
2013-01-29 16:58:00,47.5,46.4,29.52,ESE,112,2.0,3.0,96,0.00,,,0.72,meteohub,2013-01-29 21:58:00,
2013-01-29 17:03:00,47.1,45.7,29.52,SE,145,0.0,5.0,95,0.00,,,0.72,meteohub,2013-01-29 22:03:00,
2013-01-29 17:08:00,46.8,45.7,29.51,WSW,242,2.0,5.0,96,0.00,,,0.72,meteohub,2013-01-29 22:08:00,
2013-01-29 17:13:00,47.3,46.6,29.51,South,185,1.0,5.0,97,0.00,,,0.72,meteohub,2013-01-29 22:13:00,
2013-01-29 17:18:00,46.8,45.7,29.51,South,185,0.0,2.0,96,0.00,,,0.72,meteohub,2013-01-29 22:18:00,
2013-01-29 17:23:00,46.6,45.5,29.52,SSW,202,1.0,2.0,96,0.00,,,0.72,meteohub,2013-01-29 22:23:00,
2013-01-29 17:28:00,46.0,45.3,29.51,SSW,206,1.0,3.0,97,0.00,,,0.72,meteohub,2013-01-29 22:28:00,
2013-01-29 17:33:00,45.7,44.6,29.52,South,181,1.0,3.0,96,0.00,,,0.72,meteohub,2013-01-29 22:33:00,
2013-01-29 17:38:00,45.9,45.1,29.52,SW,233,0.0,3.0,97,0.00,,,0.72,meteohub,2013-01-29 22:38:00,
2013-01-29 17:43:00,46.9,46.2,29.52,East,98,3.0,3.0,97,0.00,,,0.72,meteohub,2013-01-29 22:43:00,
2013-01-29 17:48:00,46.6,45.9,29.52,NNE,20,0.0,3.0,97,0.00,,,0.72,meteohub,2013-01-29 22:48:00,
2013-01-29 17:53:00,46.6,45.9,29.52,WSW,256,2.0,5.0,97,0.00,,,0.72,meteohub,2013-01-29 22:53:00,
2013-01-29 17:58:00,46.9,46.2,29.52,South,189,1.0,5.0,97,0.00,,,0.72,meteohub,2013-01-29 22:58:00,
2013-01-29 18:03:00,47.1,46.4,29.53,SSE,151,0.0,3.0,97,0.00,,,0.72,meteohub,2013-01-29 23:03:00,
2013-01-29 18:09:00,46.6,45.5,29.52,SSW,199,0.0,2.0,96,0.00,,,0.72,meteohub,2013-01-29 23:09:00,
2013-01-29 18:14:00,46.2,45.1,29.52,WNW,295,0.0,2.0,96,0.00,,,0.72,meteohub,2013-01-29 23:14:00,
2013-01-29 18:18:00,46.9,46.2,29.52,ENE,59,0.0,2.0,97,0.00,,,0.72,meteohub,2013-01-29 23:18:00,
2013-01-29 18:23:00,46.6,45.9,29.52,South,186,0.0,2.0,97,0.00,,,0.72,meteohub,2013-01-29 23:23:00,
2013-01-29 18:28:00,46.0,45.3,29.52,South,188,0.0,2.0,97,0.00,,,0.72,meteohub,2013-01-29 23:28:00,
2013-01-29 18:33:00,46.0,45.3,29.52,SSW,199,1.0,1.0,97,0.01,,,0.73,meteohub,2013-01-29 23:33:00,
2013-01-29 18:39:00,46.0,45.3,29.52,SSW,199,0.0,2.0,97,0.01,,,0.73,meteohub,2013-01-29 23:39:00,
2013-01-29 18:43:00,45.7,45.0,29.52,SSW,198,0.0,2.0,97,0.01,,,0.73,meteohub,2013-01-29 23:43:00,
2013-01-29 18:48:00,45.5,44.8,29.52,SSW,200,1.0,2.0,97,0.01,,,0.73,meteohub,2013-01-29 23:48:00,
2013-01-29 18:54:00,45.7,45.0,29.52,SSW,199,0.0,1.0,97,0.02,,,0.74,meteohub,2013-01-29 23:54:00,
2013-01-29 18:59:00,45.9,45.1,29.52,SSW,199,0.0,1.0,97,0.02,,,0.74,meteohub,2013-01-29 23:59:00,
2013-01-29 19:04:00,45.7,45.0,29.52,SSW,198,0.0,1.0,97,0.02,,,0.74,meteohub,2013-01-30 00:04:00,
2013-01-29 19:09:00,45.3,44.6,29.52,SSW,199,0.0,1.0,97,0.02,,,0.00,meteohub,2013-01-30 00:09:00,
2013-01-29 19:14:00,45.3,44.6,29.52,SSW,199,0.0,1.0,97,0.02,,,0.00,meteohub,2013-01-30 00:14:00,
2013-01-29 19:19:00,45.1,44.4,29.53,West,278,2.0,2.0,97,0.03,,,0.01,meteohub,2013-01-30 00:19:00,
2013-01-29 19:24:00,45.9,45.3,29.52,WSW,254,0.0,2.0,98,0.03,,,0.01,meteohub,2013-01-30 00:24:00,
2013-01-29 19:29:00,46.0,45.5,29.53,WNW,297,3.0,3.0,98,0.03,,,0.01,meteohub,2013-01-30 00:29:00,
2013-01-29 19:34:00,46.6,46.0,29.53,NW,304,3.0,4.0,98,0.03,,,0.02,meteohub,2013-01-30 00:34:00,
2013-01-29 19:39:00,46.2,45.7,29.53,NNW,335,4.0,5.0,98,0.03,,,0.02,meteohub,2013-01-30 00:39:00,
2013-01-29 19:44:00,45.7,45.0,29.54,WNW,290,2.0,8.0,97,0.03,,,0.02,meteohub,2013-01-30 00:44:00,
2013-01-29 19:49:00,45.1,44.4,29.55,WSW,255,2.0,8.0,97,0.04,,,0.03,meteohub,2013-01-30 00:49:00,
2013-01-29 19:54:00,44.2,43.2,29.55,WNW,295,5.0,8.0,96,0.03,,,0.03,meteohub,2013-01-30 00:54:00,
2013-01-29 19:59:00,43.5,42.4,29.56,West,270,1.0,7.0,96,0.04,,,0.04,meteohub,2013-01-30 00:59:00,
2013-01-29 20:04:00,43.2,42.1,29.56,West,275,2.0,7.0,96,0.05,,,0.04,meteohub,2013-01-30 01:04:00,
2013-01-29 20:09:00,42.6,41.5,29.55,WNW,295,1.0,8.0,96,0.05,,,0.05,meteohub,2013-01-30 01:09:00,
2013-01-29 20:14:00,42.3,41.2,29.55,WNW,288,3.0,8.0,96,0.07,,,0.07,meteohub,2013-01-30 01:14:00,
2013-01-29 20:19:00,41.9,40.8,29.55,WNW,283,2.0,8.0,96,0.08,,,0.08,meteohub,2013-01-30 01:19:00,
2013-01-29 20:24:00,41.5,40.5,29.55,WNW,300,5.0,6.0,96,0.08,,,0.09,meteohub,2013-01-30 01:24:00,
2013-01-29 20:29:00,41.5,40.8,29.55,WNW,294,1.0,6.0,97,0.09,,,0.10,meteohub,2013-01-30 01:29:00,
2013-01-29 20:34:00,41.4,40.6,29.54,WNW,285,3.0,5.0,97,0.09,,,0.11,meteohub,2013-01-30 01:34:00,
2013-01-29 20:39:00,41.2,40.1,29.54,NW,306,1.0,5.0,96,0.09,,,0.11,meteohub,2013-01-30 01:39:00,
2013-01-29 20:44:00,40.6,39.6,29.54,North,0,2.0,5.0,96,0.09,,,0.11,meteohub,2013-01-30 01:44:00,
2013-01-29 20:49:00,40.6,39.9,29.53,WNW,299,3.0,3.0,97,0.09,,,0.12,meteohub,2013-01-30 01:49:00,
2013-01-29 20:54:00,40.5,39.4,29.53,WNW,300,1.0,3.0,96,0.10,,,0.13,meteohub,2013-01-30 01:54:00,
2013-01-29 20:59:00,40.3,39.6,29.52,WNW,287,1.0,3.0,97,0.09,,,0.13,meteohub,2013-01-30 01:59:00,
2013-01-29 21:04:00,40.5,39.7,29.52,NNE,17,0.0,3.0,97,0.09,,,0.14,meteohub,2013-01-30 02:04:00,
2013-01-29 21:09:00,39.9,38.8,29.52,West,278,1.0,3.0,96,0.09,,,0.15,meteohub,2013-01-30 02:09:00,
2013-01-29 21:14:00,39.4,38.3,29.52,WNW,287,1.0,3.0,96,0.08,,,0.15,meteohub,2013-01-30 02:14:00,
2013-01-29 21:19:00,39.4,38.7,29.52,WNW,290,1.0,2.0,97,0.06,,,0.15,meteohub,2013-01-30 02:19:00,
2013-01-29 21:24:00,39.6,38.8,29.52,WNW,290,0.0,2.0,97,0.06,,,0.16,meteohub,2013-01-30 02:24:00,
2013-01-29 21:29:00,39.6,38.8,29.51,WNW,300,1.0,2.0,97,0.05,,,0.16,meteohub,2013-01-30 02:29:00,
2013-01-29 21:34:00,39.6,38.8,29.50,WNW,290,0.0,2.0,97,0.05,,,0.16,meteohub,2013-01-30 02:34:00,
2013-01-29 21:40:00,39.6,38.8,29.49,WNW,294,1.0,2.0,97,0.05,,,0.16,meteohub,2013-01-30 02:40:00,
2013-01-29 21:45:00,39.2,38.5,29.49,WNW,294,1.0,2.0,97,0.05,,,0.17,meteohub,2013-01-30 02:45:00,
2013-01-29 21:50:00,39.0,38.3,29.50,West,278,2.0,2.0,97,0.05,,,0.17,meteohub,2013-01-30 02:50:00,
2013-01-29 21:55:00,39.0,38.3,29.50,WNW,289,2.0,2.0,97,0.05,,,0.18,meteohub,2013-01-30 02:55:00,
2013-01-29 22:00:00,39.4,38.7,29.49,NW,326,1.0,3.0,97,0.04,,,0.18,meteohub,2013-01-30 03:00:00,
2013-01-29 22:05:00,39.4,38.7,29.49,NW,326,0.0,3.0,97,0.05,,,0.19,meteohub,2013-01-30 03:05:00,
2013-01-29 22:10:00,39.4,38.7,29.48,NW,326,0.0,3.0,97,0.05,,,0.20,meteohub,2013-01-30 03:10:00,
2013-01-29 22:15:00,39.2,38.5,29.48,NW,316,1.0,2.0,97,0.06,,,0.22,meteohub,2013-01-30 03:15:00,
2013-01-29 22:20:00,38.8,38.1,29.48,NW,305,1.0,2.0,97,0.06,,,0.23,meteohub,2013-01-30 03:20:00,
2013-01-29 22:25:00,38.7,37.9,29.48,NW,306,1.0,2.0,97,0.07,,,0.24,meteohub,2013-01-30 03:25:00,
2013-01-29 22:30:00,38.7,37.9,29.49,WNW,287,2.0,2.0,97,0.08,,,0.26,meteohub,2013-01-30 03:30:00,
2013-01-29 22:35:00,38.7,37.9,29.49,WNW,283,1.0,2.0,97,0.10,,,0.26,meteohub,2013-01-30 03:35:00,
2013-01-29 22:40:00,38.7,37.9,29.49,NW,309,1.0,3.0,97,0.10,,,0.28,meteohub,2013-01-30 03:40:00,
2013-01-29 22:45:00,38.7,37.9,29.49,NNW,342,2.0,3.0,97,0.11,,,0.29,meteohub,2013-01-30 03:45:00,
2013-01-29 22:50:00,38.5,37.8,29.47,North,349,2.0,3.0,97,0.11,,,0.30,meteohub,2013-01-30 03:50:00,
2013-01-29 22:55:00,38.5,37.8,29.47,WNW,295,2.0,3.0,97,0.12,,,0.32,meteohub,2013-01-30 03:55:00,
2013-01-29 23:00:00,38.1,37.4,29.47,West,266,0.0,4.0,97,0.13,,,0.33,meteohub,2013-01-30 04:00:00,
2013-01-29 23:05:00,37.9,37.2,29.47,WNW,286,2.0,4.0,97,0.14,,,0.34,meteohub,2013-01-30 04:05:00,
2013-01-29 23:10:00,37.9,37.2,29.47,WNW,301,1.0,4.0,97,0.13,,,0.35,meteohub,2013-01-30 04:10:00,
2013-01-29 23:15:00,37.8,37.0,29.46,WNW,302,0.0,2.0,97,0.13,,,0.36,meteohub,2013-01-30 04:15:00,
2013-01-29 23:20:00,37.6,36.9,29.45,NNW,335,1.0,2.0,97,0.13,,,0.37,meteohub,2013-01-30 04:20:00,
2013-01-29 23:25:00,37.6,36.9,29.44,WNW,285,1.0,2.0,97,0.13,,,0.38,meteohub,2013-01-30 04:25:00,
2013-01-29 23:30:00,37.2,36.5,29.44,West,280,1.0,2.0,97,0.13,,,0.39,meteohub,2013-01-30 04:30:00,
2013-01-29 23:35:00,37.2,36.5,29.43,West,273,0.0,2.0,97,0.12,,,0.39,meteohub,2013-01-30 04:35:00,
2013-01-29 23:40:00,37.2,36.5,29.44,West,273,0.0,2.0,97,0.12,,,0.40,meteohub,2013-01-30 04:40:00,
2013-01-29 23:45:00,37.2,36.5,29.44,West,273,0.0,1.0,97,0.11,,,0.41,meteohub,2013-01-30 04:45:00,
2013-01-29 23:50:00,37.2,36.5,29.44,West,273,0.0,1.0,97,0.11,,,0.41,meteohub,2013-01-30 04:50:00,
2013-01-29 23:55:00,37.6,36.9,29.45,NW,309,0.0,1.0,97,0.11,,,0.43,meteohub,2013-01-30 04:55:00,